sensor_id;sensor_type;location;lat;lon;timestamp;P1;durP1;ratioP1;P2;durP2;ratioP2
55493;SDS011;41355;50.390;19.096;2022-12-18T00:01:16;71.07;;;20.25;;
55493;SDS011;41355;50.390;19.096;2022-12-18T00:03:42;103.80;;;23.23;;
55493;SDS011;41355;50.390;19.096;2022-12-18T00:06:08;179.43;;;39.28;;
55493;SDS011;41355;50.390;19.096;2022-12-18T00:08:35;150.10;;;35.60;;
55493;SDS011;41355;50.390;19.096;2022-12-18T00:11:04;135.90;;;35.17;;
55493;SDS011;41355;50.390;19.096;2022-12-18T00:13:30;106.65;;;26.08;;
55493;SDS011;41355;50.390;19.096;2022-12-18T00:16:01;112.18;;;30.58;;
55493;SDS011;41355;50.390;19.096;2022-12-18T00:18:27;68.90;;;21.00;;
55493;SDS011;41355;50.390;19.096;2022-12-18T00:20:53;131.35;;;30.73;;
55493;SDS011;41355;50.390;19.096;2022-12-18T00:23:19;96.78;;;22.98;;
55493;SDS011;41355;50.390;19.096;2022-12-18T00:25:45;92.07;;;25.05;;
55493;SDS011;41355;50.390;19.096;2022-12-18T00:28:11;78.25;;;24.42;;
55493;SDS011;41355;50.390;19.096;2022-12-18T00:30:37;297.17;;;72.18;;
55493;SDS011;41355;50.390;19.096;2022-12-18T00:33:03;163.43;;;42.90;;
55493;SDS011;41355;50.390;19.096;2022-12-18T00:35:29;138.20;;;39.40;;
55493;SDS011;41355;50.390;19.096;2022-12-18T00:37:55;101.45;;;23.23;;
55493;SDS011;41355;50.390;19.096;2022-12-18T00:40:21;126.13;;;28.90;;
55493;SDS011;41355;50.390;19.096;2022-12-18T00:42:47;165.93;;;36.00;;
55493;SDS011;41355;50.390;19.096;2022-12-18T00:45:28;141.77;;;29.55;;
55493;SDS011;41355;50.390;19.096;2022-12-18T00:47:54;99.72;;;23.98;;
55493;SDS011;41355;50.390;19.096;2022-12-18T00:50:21;149.38;;;33.60;;
55493;SDS011;41355;50.390;19.096;2022-12-18T00:52:47;101.72;;;22.77;;
55493;SDS011;41355;50.390;19.096;2022-12-18T00:55:13;73.10;;;20.17;;
55493;SDS011;41355;50.390;19.096;2022-12-18T00:57:40;61.30;;;18.05;;
55493;SDS011;41355;50.390;19.096;2022-12-18T01:00:06;137.70;;;28.67;;
55493;SDS011;41355;50.390;19.096;2022-12-18T01:02:33;149.75;;;31.60;;
55493;SDS011;41355;50.390;19.096;2022-12-18T01:04:59;46.03;;;14.82;;
55493;SDS011;41355;50.390;19.096;2022-12-18T01:07:26;155.15;;;33.80;;
55493;SDS011;41355;50.390;19.096;2022-12-18T01:09:52;129.35;;;30.00;;
55493;SDS011;41355;50.390;19.096;2022-12-18T01:12:18;109.90;;;24.83;;
55493;SDS011;41355;50.390;19.096;2022-12-18T01:14:44;110.80;;;28.90;;
55493;SDS011;41355;50.390;19.096;2022-12-18T01:17:10;164.32;;;38.47;;
55493;SDS011;41355;50.390;19.096;2022-12-18T01:19:36;148.32;;;32.20;;
55493;SDS011;41355;50.390;19.096;2022-12-18T01:22:02;128.50;;;27.52;;
55493;SDS011;41355;50.390;19.096;2022-12-18T01:24:28;186.15;;;35.22;;
55493;SDS011;41355;50.390;19.096;2022-12-18T01:26:54;140.65;;;27.17;;
55493;SDS011;41355;50.390;19.096;2022-12-18T01:29:22;263.10;;;44.92;;
55493;SDS011;41355;50.390;19.096;2022-12-18T01:31:48;170.88;;;35.03;;
55493;SDS011;41355;50.390;19.096;2022-12-18T01:34:14;85.00;;;21.83;;
55493;SDS011;41355;50.390;19.096;2022-12-18T01:36:40;90.18;;;22.15;;
55493;SDS011;41355;50.390;19.096;2022-12-18T01:39:08;120.47;;;25.58;;
55493;SDS011;41355;50.390;19.096;2022-12-18T01:41:35;210.98;;;40.92;;
55493;SDS011;41355;50.390;19.096;2022-12-18T01:47:05;81.10;;;20.52;;
55493;SDS011;41355;50.390;19.096;2022-12-18T01:49:31;131.65;;;29.90;;
55493;SDS011;41355;50.390;19.096;2022-12-18T01:51:57;78.72;;;17.58;;
55493;SDS011;41355;50.390;19.096;2022-12-18T01:54:23;162.25;;;33.17;;
55493;SDS011;41355;50.390;19.096;2022-12-18T01:56:49;255.75;;;52.55;;
55493;SDS011;41355;50.390;19.096;2022-12-18T01:59:15;257.27;;;60.83;;
55493;SDS011;41355;50.390;19.096;2022-12-18T02:01:41;157.90;;;38.92;;
55493;SDS011;41355;50.390;19.096;2022-12-18T02:04:26;128.00;;;31.70;;
55493;SDS011;41355;50.390;19.096;2022-12-18T02:06:55;66.88;;;20.13;;
55493;SDS011;41355;50.390;19.096;2022-12-18T02:09:28;201.10;;;41.92;;
55493;SDS011;41355;50.390;19.096;2022-12-18T02:12:05;86.85;;;21.83;;
55493;SDS011;41355;50.390;19.096;2022-12-18T02:27:26;284.17;;;47.85;;
55493;SDS011;41355;50.390;19.096;2022-12-18T02:29:54;285.63;;;60.53;;
55493;SDS011;41355;50.390;19.096;2022-12-18T02:32:22;221.95;;;45.72;;
55493;SDS011;41355;50.390;19.096;2022-12-18T02:34:50;475.75;;;93.05;;
55493;SDS011;41355;50.390;19.096;2022-12-18T02:37:17;101.45;;;24.55;;
55493;SDS011;41355;50.390;19.096;2022-12-18T02:39:44;175.50;;;40.92;;
55493;SDS011;41355;50.390;19.096;2022-12-18T02:42:12;232.15;;;47.78;;
55493;SDS011;41355;50.390;19.096;2022-12-18T02:44:42;228.88;;;45.10;;
55493;SDS011;41355;50.390;19.096;2022-12-18T02:47:10;156.80;;;29.45;;
55493;SDS011;41355;50.390;19.096;2022-12-18T02:54:50;505.45;;;111.20;;
55493;SDS011;41355;50.390;19.096;2022-12-18T02:59:47;185.18;;;37.25;;
55493;SDS011;41355;50.390;19.096;2022-12-18T03:04:49;195.05;;;46.08;;
55493;SDS011;41355;50.390;19.096;2022-12-18T03:07:21;125.88;;;27.90;;
55493;SDS011;41355;50.390;19.096;2022-12-18T03:09:50;84.25;;;21.20;;
55493;SDS011;41355;50.390;19.096;2022-12-18T03:12:21;157.63;;;38.42;;
55493;SDS011;41355;50.390;19.096;2022-12-18T03:17:23;218.43;;;42.35;;
55493;SDS011;41355;50.390;19.096;2022-12-18T03:19:51;165.52;;;32.33;;
55493;SDS011;41355;50.390;19.096;2022-12-18T03:22:18;280.08;;;53.47;;
55493;SDS011;41355;50.390;19.096;2022-12-18T03:24:45;138.85;;;33.33;;
55493;SDS011;41355;50.390;19.096;2022-12-18T03:27:12;172.82;;;36.88;;
55493;SDS011;41355;50.390;19.096;2022-12-18T03:29:42;139.60;;;29.85;;
55493;SDS011;41355;50.390;19.096;2022-12-18T03:32:11;141.35;;;26.40;;
55493;SDS011;41355;50.390;19.096;2022-12-18T03:34:38;174.82;;;33.40;;
55493;SDS011;41355;50.390;19.096;2022-12-18T03:37:05;150.55;;;30.65;;
55493;SDS011;41355;50.390;19.096;2022-12-18T03:39:33;95.40;;;21.25;;
55493;SDS011;41355;50.390;19.096;2022-12-18T03:42:07;110.28;;;23.73;;
55493;SDS011;41355;50.390;19.096;2022-12-18T03:44:40;121.57;;;27.42;;
55493;SDS011;41355;50.390;19.096;2022-12-18T03:47:11;122.22;;;25.83;;
55493;SDS011;41355;50.390;19.096;2022-12-18T03:52:13;85.05;;;18.58;;
55493;SDS011;41355;50.390;19.096;2022-12-18T03:54:41;173.52;;;37.67;;
55493;SDS011;41355;50.390;19.096;2022-12-18T03:57:16;96.43;;;19.63;;
55493;SDS011;41355;50.390;19.096;2022-12-18T03:59:42;94.63;;;20.23;;
55493;SDS011;41355;50.390;19.096;2022-12-18T04:02:09;73.35;;;16.48;;
55493;SDS011;41355;50.390;19.096;2022-12-18T04:04:35;141.35;;;25.67;;
55493;SDS011;41355;50.390;19.096;2022-12-18T04:07:03;207.65;;;37.15;;
55493;SDS011;41355;50.390;19.096;2022-12-18T04:09:30;154.50;;;33.67;;
55493;SDS011;41355;50.390;19.096;2022-12-18T04:11:57;87.75;;;15.52;;
55493;SDS011;41355;50.390;19.096;2022-12-18T04:14:23;183.80;;;39.67;;
55493;SDS011;41355;50.390;19.096;2022-12-18T04:16:49;83.10;;;15.43;;
55493;SDS011;41355;50.390;19.096;2022-12-18T04:19:15;288.83;;;50.92;;
55493;SDS011;41355;50.390;19.096;2022-12-18T04:21:41;69.85;;;18.27;;
55493;SDS011;41355;50.390;19.096;2022-12-18T04:24:07;97.97;;;24.33;;
55493;SDS011;41355;50.390;19.096;2022-12-18T04:26:34;129.95;;;24.38;;
55493;SDS011;41355;50.390;19.096;2022-12-18T04:29:00;108.55;;;23.48;;
55493;SDS011;41355;50.390;19.096;2022-12-18T04:31:26;113.63;;;23.38;;
55493;SDS011;41355;50.390;19.096;2022-12-18T04:33:53;32.63;;;8.50;;
55493;SDS011;41355;50.390;19.096;2022-12-18T04:36:19;83.53;;;17.13;;
55493;SDS011;41355;50.390;19.096;2022-12-18T04:38:45;130.68;;;28.10;;
55493;SDS011;41355;50.390;19.096;2022-12-18T04:41:11;127.78;;;22.95;;
55493;SDS011;41355;50.390;19.096;2022-12-18T04:43:37;150.77;;;26.63;;
55493;SDS011;41355;50.390;19.096;2022-12-18T04:46:06;70.00;;;14.50;;
55493;SDS011;41355;50.390;19.096;2022-12-18T04:48:33;87.13;;;17.88;;
55493;SDS011;41355;50.390;19.096;2022-12-18T04:50:59;118.43;;;22.45;;
55493;SDS011;41355;50.390;19.096;2022-12-18T04:53:25;31.80;;;8.82;;
55493;SDS011;41355;50.390;19.096;2022-12-18T04:56:01;83.72;;;19.08;;
55493;SDS011;41355;50.390;19.096;2022-12-18T04:58:27;160.93;;;27.23;;
55493;SDS011;41355;50.390;19.096;2022-12-18T05:00:53;105.97;;;20.05;;
55493;SDS011;41355;50.390;19.096;2022-12-18T05:03:19;136.63;;;23.92;;
55493;SDS011;41355;50.390;19.096;2022-12-18T05:05:48;98.80;;;18.75;;
55493;SDS011;41355;50.390;19.096;2022-12-18T05:08:15;68.28;;;18.23;;
55493;SDS011;41355;50.390;19.096;2022-12-18T05:10:41;57.65;;;16.23;;
55493;SDS011;41355;50.390;19.096;2022-12-18T05:13:07;79.65;;;16.23;;
55493;SDS011;41355;50.390;19.096;2022-12-18T05:15:33;194.02;;;38.08;;
55493;SDS011;41355;50.390;19.096;2022-12-18T05:17:59;158.93;;;27.92;;
55493;SDS011;41355;50.390;19.096;2022-12-18T05:20:26;138.88;;;27.23;;
55493;SDS011;41355;50.390;19.096;2022-12-18T05:22:52;142.20;;;25.95;;
55493;SDS011;41355;50.390;19.096;2022-12-18T05:25:19;132.40;;;25.67;;
55493;SDS011;41355;50.390;19.096;2022-12-18T05:27:45;190.63;;;38.17;;
55493;SDS011;41355;50.390;19.096;2022-12-18T05:30:12;179.52;;;34.97;;
55493;SDS011;41355;50.390;19.096;2022-12-18T05:32:38;95.43;;;20.27;;
55493;SDS011;41355;50.390;19.096;2022-12-18T05:35:05;147.75;;;28.88;;
55493;SDS011;41355;50.390;19.096;2022-12-18T05:37:31;180.20;;;36.55;;
55493;SDS011;41355;50.390;19.096;2022-12-18T05:39:57;54.63;;;15.05;;
55493;SDS011;41355;50.390;19.096;2022-12-18T05:42:23;78.80;;;19.52;;
55493;SDS011;41355;50.390;19.096;2022-12-18T05:44:49;132.45;;;24.00;;
55493;SDS011;41355;50.390;19.096;2022-12-18T05:47:15;93.10;;;19.95;;
55493;SDS011;41355;50.390;19.096;2022-12-18T05:49:41;64.00;;;14.80;;
55493;SDS011;41355;50.390;19.096;2022-12-18T05:52:08;86.13;;;17.10;;
55493;SDS011;41355;50.390;19.096;2022-12-18T05:54:34;95.57;;;19.83;;
55493;SDS011;41355;50.390;19.096;2022-12-18T05:57:00;93.50;;;18.48;;
55493;SDS011;41355;50.390;19.096;2022-12-18T05:59:26;93.72;;;20.08;;
55493;SDS011;41355;50.390;19.096;2022-12-18T06:01:52;55.80;;;12.93;;
55493;SDS011;41355;50.390;19.096;2022-12-18T06:04:18;123.03;;;27.48;;
55493;SDS011;41355;50.390;19.096;2022-12-18T06:06:44;114.15;;;25.02;;
55493;SDS011;41355;50.390;19.096;2022-12-18T06:09:10;104.32;;;21.08;;
55493;SDS011;41355;50.390;19.096;2022-12-18T06:11:37;107.85;;;22.73;;
55493;SDS011;41355;50.390;19.096;2022-12-18T06:14:03;101.25;;;23.60;;
55493;SDS011;41355;50.390;19.096;2022-12-18T06:16:30;161.48;;;29.60;;
55493;SDS011;41355;50.390;19.096;2022-12-18T06:18:57;91.25;;;23.00;;
55493;SDS011;41355;50.390;19.096;2022-12-18T06:21:23;29.40;;;11.82;;
55493;SDS011;41355;50.390;19.096;2022-12-18T06:23:49;153.15;;;29.48;;
55493;SDS011;41355;50.390;19.096;2022-12-18T06:26:15;136.93;;;30.45;;
55493;SDS011;41355;50.390;19.096;2022-12-18T06:28:41;226.95;;;39.65;;
55493;SDS011;41355;50.390;19.096;2022-12-18T06:31:07;167.27;;;32.33;;
55493;SDS011;41355;50.390;19.096;2022-12-18T06:33:34;151.82;;;32.03;;
55493;SDS011;41355;50.390;19.096;2022-12-18T06:36:05;157.63;;;33.72;;
55493;SDS011;41355;50.390;19.096;2022-12-18T06:38:32;137.73;;;28.38;;
55493;SDS011;41355;50.390;19.096;2022-12-18T06:40:58;141.05;;;26.30;;
55493;SDS011;41355;50.390;19.096;2022-12-18T06:43:24;65.68;;;14.57;;
55493;SDS011;41355;50.390;19.096;2022-12-18T06:45:50;112.07;;;22.75;;
55493;SDS011;41355;50.390;19.096;2022-12-18T06:48:18;75.57;;;18.13;;
55493;SDS011;41355;50.390;19.096;2022-12-18T06:50:45;85.03;;;16.85;;
55493;SDS011;41355;50.390;19.096;2022-12-18T06:53:11;35.50;;;10.45;;
55493;SDS011;41355;50.390;19.096;2022-12-18T06:55:37;116.55;;;24.38;;
55493;SDS011;41355;50.390;19.096;2022-12-18T06:58:03;99.97;;;23.98;;
55493;SDS011;41355;50.390;19.096;2022-12-18T07:00:29;105.65;;;24.13;;
55493;SDS011;41355;50.390;19.096;2022-12-18T07:02:55;67.53;;;16.38;;
55493;SDS011;41355;50.390;19.096;2022-12-18T07:05:21;103.57;;;23.92;;
55493;SDS011;41355;50.390;19.096;2022-12-18T07:07:47;93.32;;;22.10;;
55493;SDS011;41355;50.390;19.096;2022-12-18T07:10:13;80.82;;;24.33;;
55493;SDS011;41355;50.390;19.096;2022-12-18T07:12:39;143.18;;;29.95;;
55493;SDS011;41355;50.390;19.096;2022-12-18T07:15:06;445.05;;;85.72;;
55493;SDS011;41355;50.390;19.096;2022-12-18T07:17:32;218.85;;;51.80;;
55493;SDS011;41355;50.390;19.096;2022-12-18T07:19:58;163.68;;;34.05;;
55493;SDS011;41355;50.390;19.096;2022-12-18T07:22:25;103.75;;;28.48;;
55493;SDS011;41355;50.390;19.096;2022-12-18T07:24:51;144.82;;;30.33;;
55493;SDS011;41355;50.390;19.096;2022-12-18T07:27:17;168.68;;;39.92;;
55493;SDS011;41355;50.390;19.096;2022-12-18T07:29:43;203.73;;;41.08;;
55493;SDS011;41355;50.390;19.096;2022-12-18T07:32:09;184.13;;;36.47;;
55493;SDS011;41355;50.390;19.096;2022-12-18T07:34:35;151.25;;;30.67;;
55493;SDS011;41355;50.390;19.096;2022-12-18T07:37:01;183.80;;;36.25;;
55493;SDS011;41355;50.390;19.096;2022-12-18T07:39:27;231.02;;;52.00;;
55493;SDS011;41355;50.390;19.096;2022-12-18T07:41:53;307.20;;;60.05;;
55493;SDS011;41355;50.390;19.096;2022-12-18T07:44:38;395.15;;;81.65;;
55493;SDS011;41355;50.390;19.096;2022-12-18T07:47:04;828.33;;;197.40;;
55493;SDS011;41355;50.390;19.096;2022-12-18T07:49:30;1839.97;;;436.48;;
55493;SDS011;41355;50.390;19.096;2022-12-18T07:51:56;843.70;;;193.82;;
55493;SDS011;41355;50.390;19.096;2022-12-18T07:54:23;372.80;;;83.55;;
55493;SDS011;41355;50.390;19.096;2022-12-18T07:56:49;257.77;;;57.80;;
55493;SDS011;41355;50.390;19.096;2022-12-18T07:59:16;246.23;;;46.65;;
55493;SDS011;41355;50.390;19.096;2022-12-18T08:01:42;239.73;;;45.95;;
55493;SDS011;41355;50.390;19.096;2022-12-18T08:04:08;203.95;;;44.47;;
55493;SDS011;41355;50.390;19.096;2022-12-18T08:06:34;158.85;;;35.00;;
55493;SDS011;41355;50.390;19.096;2022-12-18T08:09:00;194.65;;;37.28;;
55493;SDS011;41355;50.390;19.096;2022-12-18T08:11:26;216.70;;;40.08;;
55493;SDS011;41355;50.390;19.096;2022-12-18T08:13:53;206.05;;;38.55;;
55493;SDS011;41355;50.390;19.096;2022-12-18T08:16:19;180.40;;;42.40;;
55493;SDS011;41355;50.390;19.096;2022-12-18T08:18:45;213.05;;;43.30;;
55493;SDS011;41355;50.390;19.096;2022-12-18T08:23:38;224.02;;;42.70;;
55493;SDS011;41355;50.390;19.096;2022-12-18T08:26:04;195.95;;;38.78;;
55493;SDS011;41355;50.390;19.096;2022-12-18T08:28:31;192.05;;;38.95;;
55493;SDS011;41355;50.390;19.096;2022-12-18T08:30:57;245.07;;;49.05;;
55493;SDS011;41355;50.390;19.096;2022-12-18T08:33:23;171.13;;;35.67;;
55493;SDS011;41355;50.390;19.096;2022-12-18T08:35:49;185.10;;;37.55;;
55493;SDS011;41355;50.390;19.096;2022-12-18T08:38:15;213.63;;;40.85;;
55493;SDS011;41355;50.390;19.096;2022-12-18T08:40:41;197.65;;;37.40;;
55493;SDS011;41355;50.390;19.096;2022-12-18T08:43:09;209.48;;;39.47;;
55493;SDS011;41355;50.390;19.096;2022-12-18T08:45:53;202.43;;;37.22;;
55493;SDS011;41355;50.390;19.096;2022-12-18T08:48:19;178.35;;;37.13;;
55493;SDS011;41355;50.390;19.096;2022-12-18T08:50:58;229.65;;;47.38;;
55493;SDS011;41355;50.390;19.096;2022-12-18T08:53:24;221.57;;;42.00;;
55493;SDS011;41355;50.390;19.096;2022-12-18T08:55:51;288.42;;;57.97;;
55493;SDS011;41355;50.390;19.096;2022-12-18T08:58:17;202.30;;;45.03;;
55493;SDS011;41355;50.390;19.096;2022-12-18T09:00:43;269.13;;;57.05;;
55493;SDS011;41355;50.390;19.096;2022-12-18T09:03:12;240.93;;;47.13;;
55493;SDS011;41355;50.390;19.096;2022-12-18T09:05:38;240.18;;;52.28;;
55493;SDS011;41355;50.390;19.096;2022-12-18T09:08:04;166.90;;;36.97;;
55493;SDS011;41355;50.390;19.096;2022-12-18T09:10:31;317.35;;;56.00;;
55493;SDS011;41355;50.390;19.096;2022-12-18T09:12:57;244.32;;;42.83;;
55493;SDS011;41355;50.390;19.096;2022-12-18T09:15:23;354.30;;;59.08;;
55493;SDS011;41355;50.390;19.096;2022-12-18T09:17:49;548.38;;;108.45;;
55493;SDS011;41355;50.390;19.096;2022-12-18T09:20:18;508.92;;;95.50;;
55493;SDS011;41355;50.390;19.096;2022-12-18T09:22:44;389.33;;;75.65;;
55493;SDS011;41355;50.390;19.096;2022-12-18T09:25:10;369.25;;;79.53;;
55493;SDS011;41355;50.390;19.096;2022-12-18T09:27:37;384.90;;;79.07;;
55493;SDS011;41355;50.390;19.096;2022-12-18T09:30:04;308.88;;;66.47;;
55493;SDS011;41355;50.390;19.096;2022-12-18T09:32:30;333.63;;;70.18;;
55493;SDS011;41355;50.390;19.096;2022-12-18T09:34:56;288.10;;;60.90;;
55493;SDS011;41355;50.390;19.096;2022-12-18T09:37:22;273.08;;;58.08;;
55493;SDS011;41355;50.390;19.096;2022-12-18T09:39:48;490.70;;;142.45;;
55493;SDS011;41355;50.390;19.096;2022-12-18T09:42:17;301.77;;;68.45;;
55493;SDS011;41355;50.390;19.096;2022-12-18T09:44:47;185.52;;;45.97;;
55493;SDS011;41355;50.390;19.096;2022-12-18T09:47:18;229.23;;;46.22;;
55493;SDS011;41355;50.390;19.096;2022-12-18T09:49:46;152.20;;;37.67;;
55493;SDS011;41355;50.390;19.096;2022-12-18T09:52:14;275.45;;;53.58;;
55493;SDS011;41355;50.390;19.096;2022-12-18T09:54:41;389.85;;;107.63;;
55493;SDS011;41355;50.390;19.096;2022-12-18T09:57:21;194.77;;;46.88;;
55493;SDS011;41355;50.390;19.096;2022-12-18T09:59:58;181.40;;;46.80;;
55493;SDS011;41355;50.390;19.096;2022-12-18T10:02:26;126.68;;;38.25;;
55493;SDS011;41355;50.390;19.096;2022-12-18T10:07:43;65.35;;;25.58;;
55493;SDS011;41355;50.390;19.096;2022-12-18T10:10:15;54.80;;;15.00;;
55493;SDS011;41355;50.390;19.096;2022-12-18T10:12:46;63.40;;;23.70;;
55493;SDS011;41355;50.390;19.096;2022-12-18T10:15:19;57.05;;;19.73;;
55493;SDS011;41355;50.390;19.096;2022-12-18T10:20:44;39.53;;;20.00;;
55493;SDS011;41355;50.390;19.096;2022-12-18T10:25:52;188.13;;;40.38;;
55493;SDS011;41355;50.390;19.096;2022-12-18T10:28:20;212.68;;;74.32;;
55493;SDS011;41355;50.390;19.096;2022-12-18T10:30:46;260.58;;;53.00;;
55493;SDS011;41355;50.390;19.096;2022-12-18T10:33:19;127.15;;;30.45;;
55493;SDS011;41355;50.390;19.096;2022-12-18T10:35:47;142.73;;;36.03;;
55493;SDS011;41355;50.390;19.096;2022-12-18T10:40:51;277.58;;;52.22;;
55493;SDS011;41355;50.390;19.096;2022-12-18T10:43:37;239.60;;;46.58;;
55493;SDS011;41355;50.390;19.096;2022-12-18T10:51:29;276.63;;;57.35;;
55493;SDS011;41355;50.390;19.096;2022-12-18T10:53:57;227.05;;;46.33;;
55493;SDS011;41355;50.390;19.096;2022-12-18T10:56:24;166.88;;;39.47;;
55493;SDS011;41355;50.390;19.096;2022-12-18T10:59:11;185.13;;;39.05;;
55493;SDS011;41355;50.390;19.096;2022-12-18T11:04:16;184.68;;;42.00;;
55493;SDS011;41355;50.390;19.096;2022-12-18T11:06:52;179.90;;;39.65;;
55493;SDS011;41355;50.390;19.096;2022-12-18T11:09:20;239.20;;;44.38;;
55493;SDS011;41355;50.390;19.096;2022-12-18T11:11:50;214.98;;;40.95;;
55493;SDS011;41355;50.390;19.096;2022-12-18T11:14:20;209.38;;;43.30;;
55493;SDS011;41355;50.390;19.096;2022-12-18T11:16:47;202.00;;;42.05;;
55493;SDS011;41355;50.390;19.096;2022-12-18T11:21:47;277.45;;;60.55;;
55493;SDS011;41355;50.390;19.096;2022-12-18T11:24:49;193.85;;;40.03;;
55493;SDS011;41355;50.390;19.096;2022-12-18T11:27:05;228.52;;;40.05;;
55493;SDS011;41355;50.390;19.096;2022-12-18T11:29:41;178.68;;;36.00;;
55493;SDS011;41355;50.390;19.096;2022-12-18T11:34:46;162.57;;;33.45;;
55493;SDS011;41355;50.390;19.096;2022-12-18T11:37:14;116.50;;;23.38;;
55493;SDS011;41355;50.390;19.096;2022-12-18T11:39:52;139.05;;;30.98;;
55493;SDS011;41355;50.390;19.096;2022-12-18T11:42:23;170.18;;;35.60;;
55493;SDS011;41355;50.390;19.096;2022-12-18T11:44:50;172.27;;;34.22;;
55493;SDS011;41355;50.390;19.096;2022-12-18T11:49:50;195.95;;;36.63;;
55493;SDS011;41355;50.390;19.096;2022-12-18T11:54:55;123.18;;;29.70;;
55493;SDS011;41355;50.390;19.096;2022-12-18T11:57:26;158.38;;;34.63;;
55493;SDS011;41355;50.390;19.096;2022-12-18T11:59:55;174.65;;;36.75;;
55493;SDS011;41355;50.390;19.096;2022-12-18T12:02:46;210.95;;;42.20;;
55493;SDS011;41355;50.390;19.096;2022-12-18T12:07:49;210.45;;;46.35;;
55493;SDS011;41355;50.390;19.096;2022-12-18T12:18:03;201.77;;;41.88;;
55493;SDS011;41355;50.390;19.096;2022-12-18T12:20:49;165.00;;;39.75;;
55493;SDS011;41355;50.390;19.096;2022-12-18T12:26:07;165.93;;;36.55;;
55493;SDS011;41355;50.390;19.096;2022-12-18T12:34:01;171.32;;;35.42;;
55493;SDS011;41355;50.390;19.096;2022-12-18T12:36:38;172.27;;;36.30;;
55493;SDS011;41355;50.390;19.096;2022-12-18T12:39:08;151.00;;;33.83;;
55493;SDS011;41355;50.390;19.096;2022-12-18T12:41:37;153.18;;;31.60;;
55493;SDS011;41355;50.390;19.096;2022-12-18T12:44:43;141.85;;;33.95;;
55493;SDS011;41355;50.390;19.096;2022-12-18T12:47:12;154.68;;;33.72;;
55493;SDS011;41355;50.390;19.096;2022-12-18T12:49:40;170.30;;;35.75;;
55493;SDS011;41355;50.390;19.096;2022-12-18T12:52:14;163.90;;;35.50;;
55493;SDS011;41355;50.390;19.096;2022-12-18T12:54:41;148.45;;;36.03;;
55493;SDS011;41355;50.390;19.096;2022-12-18T13:07:33;169.40;;;38.92;;
55493;SDS011;41355;50.390;19.096;2022-12-18T13:12:57;155.85;;;34.05;;
55493;SDS011;41355;50.390;19.096;2022-12-18T13:18:23;146.55;;;32.85;;
55493;SDS011;41355;50.390;19.096;2022-12-18T13:20:43;144.73;;;29.25;;
55493;SDS011;41355;50.390;19.096;2022-12-18T13:25:45;157.40;;;34.90;;
55493;SDS011;41355;50.390;19.096;2022-12-18T13:28:12;154.50;;;32.50;;
55493;SDS011;41355;50.390;19.096;2022-12-18T13:30:52;148.80;;;33.65;;
55493;SDS011;41355;50.390;19.096;2022-12-18T13:38:25;172.63;;;37.47;;
55493;SDS011;41355;50.390;19.096;2022-12-18T13:40:59;156.10;;;34.40;;
55493;SDS011;41355;50.390;19.096;2022-12-18T13:48:31;163.85;;;36.03;;
55493;SDS011;41355;50.390;19.096;2022-12-18T13:53:28;155.07;;;35.75;;
55493;SDS011;41355;50.390;19.096;2022-12-18T13:55:55;174.77;;;37.63;;
55493;SDS011;41355;50.390;19.096;2022-12-18T13:58:21;176.70;;;35.92;;
55493;SDS011;41355;50.390;19.096;2022-12-18T14:00:47;166.65;;;38.10;;
55493;SDS011;41355;50.390;19.096;2022-12-18T14:03:21;139.27;;;34.70;;
55493;SDS011;41355;50.390;19.096;2022-12-18T14:05:52;151.35;;;34.90;;
55493;SDS011;41355;50.390;19.096;2022-12-18T14:08:18;162.50;;;34.95;;
55493;SDS011;41355;50.390;19.096;2022-12-18T14:10:45;152.30;;;33.00;;
55493;SDS011;41355;50.390;19.096;2022-12-18T14:13:16;166.48;;;36.80;;
55493;SDS011;41355;50.390;19.096;2022-12-18T14:15:44;161.93;;;35.22;;
55493;SDS011;41355;50.390;19.096;2022-12-18T14:18:24;156.93;;;36.42;;
55493;SDS011;41355;50.390;19.096;2022-12-18T14:20:54;166.00;;;34.03;;
55493;SDS011;41355;50.390;19.096;2022-12-18T14:25:59;148.82;;;32.33;;
55493;SDS011;41355;50.390;19.096;2022-12-18T14:28:25;170.23;;;37.17;;
55493;SDS011;41355;50.390;19.096;2022-12-18T14:30:51;208.05;;;42.97;;
55493;SDS011;41355;50.390;19.096;2022-12-18T14:33:22;215.02;;;44.05;;
55493;SDS011;41355;50.390;19.096;2022-12-18T14:35:56;257.52;;;55.63;;
55493;SDS011;41355;50.390;19.096;2022-12-18T14:40:55;283.13;;;65.13;;
55493;SDS011;41355;50.390;19.096;2022-12-18T14:43:22;346.48;;;81.05;;
55493;SDS011;41355;50.390;19.096;2022-12-18T14:45:48;324.83;;;76.43;;
55493;SDS011;41355;50.390;19.096;2022-12-18T14:50:44;363.98;;;95.22;;
55493;SDS011;41355;50.390;19.096;2022-12-18T14:53:20;298.60;;;68.97;;
55493;SDS011;41355;50.390;19.096;2022-12-18T14:55:47;192.07;;;45.85;;
55493;SDS011;41355;50.390;19.096;2022-12-18T14:58:14;283.95;;;59.03;;
55493;SDS011;41355;50.390;19.096;2022-12-18T15:00:41;249.73;;;56.38;;
55493;SDS011;41355;50.390;19.096;2022-12-18T15:03:07;273.13;;;64.95;;
55493;SDS011;41355;50.390;19.096;2022-12-18T15:05:34;344.05;;;69.63;;
55493;SDS011;41355;50.390;19.096;2022-12-18T15:08:00;304.33;;;68.75;;
55493;SDS011;41355;50.390;19.096;2022-12-18T15:10:31;310.27;;;64.70;;
55493;SDS011;41355;50.390;19.096;2022-12-18T15:18:05;194.88;;;49.15;;
55493;SDS011;41355;50.390;19.096;2022-12-18T15:23:04;255.98;;;61.25;;
55493;SDS011;41355;50.390;19.096;2022-12-18T15:25:34;258.63;;;57.45;;
55493;SDS011;41355;50.390;19.096;2022-12-18T15:28:02;180.95;;;45.85;;
55493;SDS011;41355;50.390;19.096;2022-12-18T15:30:28;212.60;;;53.47;;
55493;SDS011;41355;50.390;19.096;2022-12-18T15:35:39;275.38;;;59.95;;
55493;SDS011;41355;50.390;19.096;2022-12-18T15:38:06;312.30;;;65.47;;
55493;SDS011;41355;50.390;19.096;2022-12-18T15:40:32;303.63;;;66.28;;
55493;SDS011;41355;50.390;19.096;2022-12-18T15:42:59;244.30;;;53.45;;
55493;SDS011;41355;50.390;19.096;2022-12-18T15:45:57;242.32;;;54.00;;
55493;SDS011;41355;50.390;19.096;2022-12-18T15:48:23;210.13;;;53.08;;
55493;SDS011;41355;50.390;19.096;2022-12-18T15:50:50;236.85;;;58.40;;
55493;SDS011;41355;50.390;19.096;2022-12-18T15:53:17;221.85;;;49.40;;
55493;SDS011;41355;50.390;19.096;2022-12-18T15:55:43;254.75;;;54.67;;
55493;SDS011;41355;50.390;19.096;2022-12-18T15:58:27;270.48;;;58.33;;
55493;SDS011;41355;50.390;19.096;2022-12-18T16:00:53;211.80;;;55.03;;
55493;SDS011;41355;50.390;19.096;2022-12-18T16:03:21;184.55;;;47.58;;
55493;SDS011;41355;50.390;19.096;2022-12-18T16:05:47;189.40;;;45.67;;
55493;SDS011;41355;50.390;19.096;2022-12-18T16:08:13;209.52;;;51.08;;
55493;SDS011;41355;50.390;19.096;2022-12-18T16:10:39;242.50;;;56.03;;
55493;SDS011;41355;50.390;19.096;2022-12-18T16:13:05;244.13;;;52.20;;
55493;SDS011;41355;50.390;19.096;2022-12-18T16:15:32;225.57;;;49.40;;